Time;durP1;ratioP1;P1;durP2;ratioP2;P2;SDS_P1;SDS_P2;PMS_P1;PMS_P2;Temp;Humidity;BMP_temperature;BMP_pressure;BME280_temperature;BME280_humidity;BME280_pressure;Samples;Min_cycle;Max_cycle;Signal;HPM_P1;HPM_P2
2023/07/03 00:02:09;;;;;;;12.20;5.30;;;14.60;1.00;;;;;;4994080;28;20217;-59
2023/07/03 00:04:37;;;;;;;11.63;5.10;;;14.60;1.00;;;;;;4993608;28;20333;-59
2023/07/03 00:07:07;;;;;;;10.37;4.97;;;14.50;1.00;;;;;;4998961;28;20197;-59
2023/07/03 00:09:32;;;;;;;12.47;5.63;;;14.50;1.00;;;;;;4993489;28;20426;-59
2023/07/03 00:11:58;;;;;;;16.87;5.77;;;14.60;1.00;;;;;;4994880;28;20784;-59
2023/07/03 00:14:24;;;;;;;14.40;5.17;;;14.60;1.00;;;;;;5000057;28;20222;-59
2023/07/03 00:16:49;;;;;;;13.80;5.10;;;14.60;1.00;;;;;;4999243;28;20190;-57
2023/07/03 00:19:15;;;;;;;12.30;5.60;;;14.60;1.00;;;;;;4993837;28;20187;-58
2023/07/03 00:21:44;;;;;;;10.47;5.33;;;14.70;1.00;;;;;;4994649;28;20186;-59
2023/07/03 00:24:11;;;;;;;12.20;5.43;;;14.70;1.00;;;;;;4994157;28;20199;-57
2023/07/03 00:26:37;;;;;;;9.30;4.67;;;14.70;1.00;;;;;;4998112;28;20452;-55
2023/07/03 00:29:03;;;;;;;11.73;5.07;;;14.70;1.00;;;;;;4994232;28;20591;-58
2023/07/03 00:31:30;;;;;;;11.70;4.90;;;14.70;1.00;;;;;;4992655;28;20990;-59
2023/07/03 00:33:55;;;;;;;13.77;5.17;;;14.70;1.00;;;;;;4993331;28;20214;-58
2023/07/03 00:36:21;;;;;;;9.40;5.23;;;14.80;1.00;;;;;;5000403;28;20849;-58
2023/07/03 00:38:47;;;;;;;14.20;5.33;;;14.70;1.00;;;;;;4993616;28;20192;-59
2023/07/03 00:41:12;;;;;;;12.27;5.40;;;14.70;1.00;;;;;;5000935;28;20186;-58
2023/07/03 00:43:42;;;;;;;14.97;5.00;;;14.80;1.00;;;;;;5001535;28;20189;-57
2023/07/03 00:46:12;;;;;;;9.17;4.83;;;14.80;1.00;;;;;;5018074;28;20189;-58
2023/07/03 00:48:40;;;;;;;14.70;5.90;;;14.80;1.00;;;;;;4992121;28;21002;-59
2023/07/03 00:51:06;;;;;;;12.03;5.13;;;14.80;1.00;;;;;;4993489;28;20437;-56
2023/07/03 00:53:32;;;;;;;14.00;6.67;;;14.80;1.00;;;;;;4993084;28;20567;-56
2023/07/03 00:55:57;;;;;;;10.60;5.30;;;14.80;1.00;;;;;;4998981;28;20498;-58
2023/07/03 00:58:23;;;;;;;16.93;5.50;;;14.80;1.00;;;;;;5017077;28;20553;-57
2023/07/03 01:00:58;;;;;;;12.20;5.33;;;14.80;1.00;;;;;;5027170;28;20237;-57
2023/07/03 01:03:32;;;;;;;10.23;5.67;;;14.70;1.00;;;;;;4992663;28;20221;-57
2023/07/03 01:06:00;;;;;;;11.07;5.40;;;14.70;1.00;;;;;;5007875;28;20430;-59
2023/07/03 01:08:26;;;;;;;17.13;5.73;;;14.70;1.00;;;;;;4992008;28;20984;-58
2023/07/03 01:10:53;;;;;;;18.80;5.60;;;14.70;1.00;;;;;;5037258;28;20440;-58
2023/07/03 01:13:21;;;;;;;10.63;5.30;;;14.70;1.00;;;;;;4992607;28;20494;-54
2023/07/03 01:15:47;;;;;;;11.07;4.70;;;14.70;1.00;;;;;;4992536;28;20877;-58
2023/07/03 01:18:14;;;;;;;14.70;4.90;;;14.80;1.00;;;;;;4992607;28;20437;-57
2023/07/03 01:20:45;;;;;;;9.63;5.70;;;14.80;1.00;;;;;;4992712;28;20445;-58
2023/07/03 01:23:22;;;;;;;12.33;5.57;;;14.80;1.00;;;;;;4992521;28;20432;-59
2023/07/03 01:25:51;;;;;;;21.73;6.17;;;14.80;1.00;;;;;;4984961;28;20758;-57
2023/07/03 01:28:20;;;;;;;20.40;5.93;;;14.80;1.00;;;;;;4992584;28;20474;-58
2023/07/03 01:30:47;;;;;;;12.30;5.50;;;14.80;1.00;;;;;;4992400;28;20466;-58
2023/07/03 01:33:18;;;;;;;8.03;5.20;;;14.80;1.00;;;;;;4996045;28;20486;-57
2023/07/03 01:35:46;;;;;;;12.63;5.20;;;14.80;1.00;;;;;;4991504;28;20547;-58
2023/07/03 01:38:13;;;;;;;17.90;4.87;;;14.80;1.00;;;;;;4997155;28;20453;-58
2023/07/03 01:40:39;;;;;;;13.63;5.73;;;14.80;1.00;;;;;;4997202;28;20530;-59
2023/07/03 01:43:06;;;;;;;13.67;5.43;;;14.80;1.00;;;;;;4996539;28;20429;-58
2023/07/03 01:45:47;;;;;;;14.63;4.97;;;14.90;1.00;;;;;;5001634;28;20436;-55
2023/07/03 01:48:13;;;;;;;14.63;5.27;;;14.90;1.00;;;;;;4994250;28;20435;-59
2023/07/03 01:50:41;;;;;;;12.10;5.20;;;14.90;1.00;;;;;;4992247;28;20436;-59
2023/07/03 01:53:15;;;;;;;15.40;5.40;;;14.90;1.00;;;;;;4994722;28;20938;-57
2023/07/03 01:55:48;;;;;;;12.30;5.10;;;14.90;1.00;;;;;;4987028;28;20487;-57
2023/07/03 01:58:20;;;;;;;12.73;6.00;;;14.90;1.00;;;;;;4989162;28;20929;-58
2023/07/03 02:00:55;;;;;;;16.47;5.67;;;14.90;1.00;;;;;;4993350;28;20558;-59
2023/07/03 02:03:34;;;;;;;13.43;6.00;;;14.90;1.00;;;;;;4990260;28;20445;-60
2023/07/03 02:06:06;;;;;;;13.37;5.47;;;14.90;1.00;;;;;;4993327;28;20536;-57
2023/07/03 02:08:32;;;;;;;19.40;6.00;;;14.80;1.00;;;;;;4991361;28;20881;-59
2023/07/03 02:10:57;;;;;;;11.60;5.80;;;14.90;1.00;;;;;;4993244;28;20525;-59
2023/07/03 02:13:23;;;;;;;15.87;6.10;;;14.90;1.00;;;;;;5012002;28;20516;-59
2023/07/03 02:15:49;;;;;;;16.10;5.70;;;14.80;1.00;;;;;;4990459;28;20222;-57
2023/07/03 02:18:17;;;;;;;10.77;5.67;;;14.80;1.00;;;;;;4998891;28;20269;-58
2023/07/03 02:20:49;;;;;;;10.70;5.60;;;14.70;1.00;;;;;;4995946;28;20205;-59
2023/07/03 02:23:15;;;;;;;19.53;5.90;;;14.70;1.00;;;;;;4993058;28;20442;-58
2023/07/03 02:25:41;;;;;;;15.17;6.63;;;14.70;1.00;;;;;;4995959;28;20448;-58
2023/07/03 02:28:07;;;;;;;10.93;5.43;;;14.70;1.00;;;;;;5031741;28;20477;-58
2023/07/03 02:30:33;;;;;;;16.37;5.57;;;14.60;1.00;;;;;;4991367;28;20518;-60
2023/07/03 02:32:58;;;;;;;12.40;5.40;;;14.50;1.00;;;;;;4992070;28;20230;-57
2023/07/03 02:35:24;;;;;;;13.80;5.80;;;14.40;1.00;;;;;;5005231;28;20214;-57
2023/07/03 02:37:50;;;;;;;19.23;6.23;;;14.40;1.00;;;;;;5025979;28;20215;-60
2023/07/03 02:40:16;;;;;;;13.77;5.83;;;14.40;1.00;;;;;;5017487;28;20209;-60
2023/07/03 02:42:42;;;;;;;12.50;5.60;;;14.40;1.00;;;;;;5035221;28;20554;-59
2023/07/03 02:45:09;;;;;;;14.90;5.77;;;14.40;1.00;;;;;;4996351;28;20438;-59
2023/07/03 02:47:38;;;;;;;17.70;5.70;;;14.30;1.00;;;;;;4991451;28;20183;-59
2023/07/03 02:50:06;;;;;;;18.03;6.67;;;14.30;1.00;;;;;;4991627;28;20532;-60
2023/07/03 02:52:31;;;;;;;12.97;5.40;;;14.30;1.00;;;;;;4990120;28;20510;-59
2023/07/03 02:54:57;;;;;;;13.20;5.97;;;14.30;1.00;;;;;;4997355;28;20488;-58
2023/07/03 02:57:23;;;;;;;11.07;5.97;;;14.40;1.00;;;;;;4999281;28;20206;-57
2023/07/03 02:59:48;;;;;;;15.90;5.53;;;14.50;1.00;;;;;;4993026;28;20471;-58
2023/07/03 03:02:14;;;;;;;15.33;6.33;;;14.50;1.00;;;;;;4993602;28;20198;-58
2023/07/03 03:04:39;;;;;;;12.87;5.73;;;14.50;1.00;;;;;;4994018;28;20641;-59
2023/07/03 03:07:05;;;;;;;12.37;6.07;;;14.50;1.00;;;;;;4990614;28;20186;-59
2023/07/03 03:09:31;;;;;;;15.17;6.07;;;14.50;1.00;;;;;;4994083;28;20217;-58
2023/07/03 03:11:56;;;;;;;12.80;5.30;;;14.50;1.00;;;;;;4991459;28;20612;-59
2023/07/03 03:14:22;;;;;;;16.70;6.43;;;14.50;1.00;;;;;;4988322;28;20421;-57
2023/07/03 03:16:47;;;;;;;12.10;5.50;;;14.50;1.00;;;;;;4996447;28;20186;-56
2023/07/03 03:19:13;;;;;;;14.03;6.03;;;14.50;1.00;;;;;;4993618;28;20185;-58
2023/07/03 03:21:39;;;;;;;14.43;6.23;;;14.50;1.00;;;;;;4991331;28;20214;-57
2023/07/03 03:24:04;;;;;;;13.67;6.20;;;14.60;1.00;;;;;;4995607;28;20180;-58
2023/07/03 03:26:31;;;;;;;12.80;5.53;;;14.70;1.00;;;;;;4993286;28;20552;-58
2023/07/03 03:28:57;;;;;;;12.93;6.00;;;14.70;1.00;;;;;;4989703;28;20195;-56
2023/07/03 03:31:23;;;;;;;16.57;5.87;;;14.70;1.00;;;;;;4990352;28;20524;-58
2023/07/03 03:33:48;;;;;;;16.50;5.30;;;14.70;1.00;;;;;;4990343;28;20509;-58
2023/07/03 03:36:14;;;;;;;13.47;5.77;;;14.70;1.00;;;;;;4990341;28;20219;-59
2023/07/03 03:38:40;;;;;;;18.00;6.10;;;14.70;1.00;;;;;;4990803;28;20192;-58
2023/07/03 03:41:06;;;;;;;14.90;6.60;;;14.80;1.00;;;;;;4990833;28;20507;-59
2023/07/03 03:43:31;;;;;;;16.30;5.67;;;14.80;1.00;;;;;;4991894;28;20199;-56
2023/07/03 03:45:59;;;;;;;14.67;5.90;;;14.80;1.00;;;;;;4990976;28;20265;-59
2023/07/03 03:48:26;;;;;;;12.67;6.50;;;14.90;1.00;;;;;;4990321;28;20581;-59
2023/07/03 03:50:52;;;;;;;11.03;5.33;;;14.90;1.00;;;;;;4990340;28;20434;-58
2023/07/03 03:53:18;;;;;;;19.80;5.73;;;14.90;1.00;;;;;;5005772;28;20449;-58
2023/07/03 03:55:47;;;;;;;14.53;5.50;;;15.00;1.00;;;;;;4988203;28;20474;-59
2023/07/03 03:58:15;;;;;;;22.37;6.20;;;15.10;1.00;;;;;;4995146;28;20225;-59
2023/07/03 04:00:41;;;;;;;19.33;6.40;;;15.10;1.00;;;;;;4996913;28;20452;-57
2023/07/03 04:03:06;;;;;;;14.10;7.07;;;15.10;1.00;;;;;;4989357;28;20437;-59
2023/07/03 04:05:32;;;;;;;13.00;5.90;;;15.10;1.00;;;;;;4997406;28;20274;-60
2023/07/03 04:07:57;;;;;;;16.10;6.53;;;15.10;1.00;;;;;;4990105;28;20612;-59
2023/07/03 04:10:23;;;;;;;14.30;6.37;;;15.20;1.00;;;;;;4991478;28;20311;-58
2023/07/03 04:12:49;;;;;;;14.13;6.00;;;15.20;1.00;;;;;;4993945;28;20180;-61
2023/07/03 04:15:14;;;;;;;17.83;6.07;;;15.20;1.00;;;;;;4990322;28;20228;-61
2023/07/03 04:17:40;;;;;;;18.20;5.67;;;15.20;1.00;;;;;;4990396;28;20193;-58
2023/07/03 04:20:07;;;;;;;12.40;5.70;;;15.30;1.00;;;;;;4994181;28;20192;-60
2023/07/03 04:22:33;;;;;;;18.07;6.73;;;15.30;1.00;;;;;;4995628;28;20200;-60
2023/07/03 04:24:59;;;;;;;13.77;6.17;;;15.30;1.00;;;;;;5004997;28;20437;-59
2023/07/03 04:27:25;;;;;;;20.53;6.20;;;15.40;1.00;;;;;;4992475;28;20461;-59
2023/07/03 04:29:50;;;;;;;16.40;6.23;;;15.40;1.00;;;;;;4993278;28;20190;-60
2023/07/03 04:32:16;;;;;;;15.60;6.17;;;15.50;1.00;;;;;;4998120;28;20194;-59
2023/07/03 04:34:42;;;;;;;11.50;6.07;;;15.50;1.00;;;;;;5002686;28;20312;-59
2023/07/03 04:37:08;;;;;;;13.70;6.10;;;15.50;1.00;;;;;;4996150;28;20237;-59
2023/07/03 04:39:34;;;;;;;20.97;6.33;;;15.50;1.00;;;;;;4993591;28;20203;-63
2023/07/03 04:42:00;;;;;;;17.07;6.50;;;15.40;1.00;;;;;;4994973;28;20430;-56
2023/07/03 04:44:29;;;;;;;18.83;6.93;;;15.50;1.00;;;;;;4996590;28;20557;-59
2023/07/03 04:46:55;;;;;;;16.33;6.37;;;15.50;1.00;;;;;;4997279;28;20436;-59
2023/07/03 04:49:26;;;;;;;19.57;7.13;;;15.50;1.00;;;;;;4998035;28;20447;-58
2023/07/03 04:51:52;;;;;;;14.80;6.27;;;15.50;1.00;;;;;;4993983;28;20930;-59
2023/07/03 04:54:19;;;;;;;16.70;6.43;;;15.70;1.00;;;;;;4998367;28;20555;-59
2023/07/03 04:56:45;;;;;;;16.80;6.23;;;15.80;1.00;;;;;;4997094;28;20804;-60
2023/07/03 04:59:11;;;;;;;18.40;5.73;;;15.90;1.00;;;;;;4996900;28;20442;-60
2023/07/03 05:01:36;;;;;;;18.10;5.80;;;16.00;1.00;;;;;;4984373;28;20451;-59
2023/07/03 05:04:02;;;;;;;22.70;6.70;;;16.20;1.00;;;;;;5020949;28;20443;-59
2023/07/03 05:06:28;;;;;;;21.83;6.83;;;16.30;1.00;;;;;;4998386;28;20534;-59
2023/07/03 05:08:54;;;;;;;16.27;6.77;;;16.30;1.00;;;;;;5022897;28;20241;-59
2023/07/03 05:11:19;;;;;;;23.50;6.47;;;16.40;1.00;;;;;;5037648;28;20448;-58
2023/07/03 05:13:45;;;;;;;17.33;6.90;;;16.40;1.00;;;;;;5003907;28;20196;-59
2023/07/03 05:16:11;;;;;;;22.47;5.90;;;16.50;1.00;;;;;;5012182;28;20219;-58
2023/07/03 05:18:36;;;;;;;17.90;6.10;;;16.50;1.00;;;;;;5037059;28;20187;-58
2023/07/03 05:21:03;;;;;;;20.00;6.27;;;16.60;1.00;;;;;;5027040;28;20191;-59
2023/07/03 05:23:28;;;;;;;18.47;6.47;;;16.70;1.00;;;;;;5015871;28;20245;-57
2023/07/03 05:25:54;;;;;;;14.97;6.50;;;16.70;1.00;;;;;;5001015;28;20439;-58
2023/07/03 05:28:20;;;;;;;13.57;6.17;;;16.80;1.00;;;;;;5005551;28;20188;-57
2023/07/03 05:30:55;;;;;;;18.27;6.17;;;16.80;1.00;;;;;;5063440;28;20192;-59
2023/07/03 05:33:21;;;;;;;21.43;6.47;;;16.90;1.00;;;;;;5009374;28;20183;-56
2023/07/03 05:35:47;;;;;;;20.90;6.70;;;17.00;1.00;;;;;;5094077;28;20466;-58
2023/07/03 05:38:13;;;;;;;15.50;5.80;;;17.10;1.00;;;;;;5095717;28;20410;-58
2023/07/03 05:40:38;;;;;;;19.23;6.13;;;17.20;1.00;;;;;;5085768;28;20191;-59
2023/07/03 05:43:04;;;;;;;14.53;6.43;;;17.30;1.00;;;;;;5061046;28;20224;-59
2023/07/03 05:45:29;;;;;;;18.63;6.60;;;17.40;1.00;;;;;;5010906;28;20187;-57
2023/07/03 05:47:55;;;;;;;16.07;6.30;;;17.60;1.00;;;;;;5006967;28;20211;-55
2023/07/03 05:50:20;;;;;;;15.27;6.20;;;17.60;1.00;;;;;;5074930;28;20255;-58
2023/07/03 05:52:46;;;;;;;18.20;6.50;;;17.70;1.00;;;;;;5021768;28;20194;-58
2023/07/03 05:55:12;;;;;;;14.90;5.83;;;17.80;1.00;;;;;;4996396;28;20273;-60
2023/07/03 05:57:38;;;;;;;15.00;6.10;;;17.90;1.00;;;;;;4995297;28;20656;-59
2023/07/03 06:00:12;;;;;;;23.10;7.37;;;18.00;1.00;;;;;;4994132;28;20446;-55
2023/07/03 06:02:39;;;;;;;17.87;6.20;;;18.00;1.00;;;;;;5088995;28;20191;-58
2023/07/03 06:05:05;;;;;;;15.80;6.60;;;17.90;1.00;;;;;;4993241;28;21678;-59
2023/07/03 06:07:30;;;;;;;16.90;5.97;;;18.00;1.00;;;;;;4952034;28;20441;-57
2023/07/03 06:09:57;;;;;;;20.60;6.20;;;18.00;1.00;;;;;;4957906;28;20551;-57
2023/07/03 06:12:28;;;;;;;19.20;5.73;;;17.90;1.00;;;;;;4983590;28;20195;-58
2023/07/03 06:14:58;;;;;;;12.27;4.57;;;17.90;1.00;;;;;;4991014;28;20566;-58
2023/07/03 06:17:25;;;;;;;20.83;5.30;;;18.00;1.00;;;;;;5004644;28;20449;-59
2023/07/03 06:19:51;;;;;;;16.57;5.47;;;17.80;1.00;;;;;;5011872;28;20450;-59
2023/07/03 06:22:17;;;;;;;18.57;5.70;;;17.80;1.00;;;;;;5010889;28;20910;-60
2023/07/03 06:24:42;;;;;;;21.87;6.37;;;17.90;1.00;;;;;;4999221;28;20184;-60
2023/07/03 06:27:08;;;;;;;17.70;6.00;;;18.20;1.00;;;;;;4992125;28;20273;-58
2023/07/03 06:29:33;;;;;;;22.00;6.17;;;18.60;1.00;;;;;;4992118;28;20192;-58
2023/07/03 06:31:59;;;;;;;22.83;5.90;;;18.80;1.00;;;;;;4990804;28;20192;-58
2023/07/03 06:34:25;;;;;;;19.50;6.17;;;18.50;1.00;;;;;;4991828;28;20195;-60
2023/07/03 06:36:50;;;;;;;18.00;5.47;;;18.40;1.00;;;;;;4992035;28;20307;-60
2023/07/03 06:39:16;;;;;;;15.00;5.37;;;18.10;1.00;;;;;;4991757;28;20184;-58
2023/07/03 06:41:41;;;;;;;13.83;5.30;;;17.90;1.00;;;;;;4990828;28;20279;-57
2023/07/03 06:44:12;;;;;;;20.40;6.40;;;17.80;1.00;;;;;;4991626;28;20195;-57
2023/07/03 06:46:38;;;;;;;20.80;5.43;;;17.90;1.00;;;;;;4992435;28;20181;-59
2023/07/03 06:49:04;;;;;;;15.13;4.80;;;17.80;1.00;;;;;;4991728;28;20976;-59
2023/07/03 06:51:29;;;;;;;15.40;5.33;;;17.80;1.00;;;;;;4991999;28;20226;-59
2023/07/03 06:53:55;;;;;;;16.57;5.10;;;17.80;1.00;;;;;;4991551;28;20989;-59
2023/07/03 06:56:21;;;;;;;15.20;5.20;;;17.90;1.00;;;;;;4991553;28;20212;-57
2023/07/03 06:58:48;;;;;;;15.20;4.73;;;18.10;1.00;;;;;;4990988;28;20431;-59
2023/07/03 07:01:14;;;;;;;16.50;5.17;;;18.10;1.00;;;;;;4991744;28;20191;-59
2023/07/03 07:03:40;;;;;;;14.53;5.10;;;18.10;1.00;;;;;;4991244;28;20459;-59
2023/07/03 07:06:22;;;;;;;14.57;5.07;;;18.10;1.00;;;;;;4991651;28;20942;-59
2023/07/03 07:08:48;;;;;;;18.23;5.50;;;17.90;1.00;;;;;;4992198;28;20184;-59
2023/07/03 07:11:17;;;;;;;18.67;5.63;;;17.70;1.00;;;;;;4991918;28;20931;-59
2023/07/03 07:13:44;;;;;;;16.80;6.40;;;17.50;1.00;;;;;;4992062;28;20415;-59
2023/07/03 07:16:21;;;;;;;14.97;5.40;;;17.50;1.00;;;;;;4991217;28;20551;-60
2023/07/03 07:18:50;;;;;;;15.00;4.83;;;17.80;1.00;;;;;;4991479;28;20426;-59
2023/07/03 07:21:16;;;;;;;13.03;4.60;;;18.20;1.00;;;;;;4991442;28;20829;-60
2023/07/03 07:23:42;;;;;;;17.03;5.10;;;18.10;1.00;;;;;;4991934;28;20411;-59
2023/07/03 07:26:08;;;;;;;15.50;4.63;;;18.10;1.00;;;;;;4991436;28;20315;-59
2023/07/03 07:28:33;;;;;;;17.93;5.10;;;18.20;1.00;;;;;;4991788;28;20211;-58
2023/07/03 07:30:59;;;;;;;19.57;4.80;;;18.20;1.00;;;;;;4990238;28;20528;-57
2023/07/03 07:33:24;;;;;;;11.90;4.70;;;18.00;1.00;;;;;;4991746;28;20191;-57
2023/07/03 07:35:51;;;;;;;20.17;4.97;;;17.80;1.00;;;;;;4991366;28;20297;-59
2023/07/03 07:38:18;;;;;;;18.77;5.17;;;17.70;1.00;;;;;;4991351;28;20183;-59
2023/07/03 07:40:44;;;;;;;15.57;4.80;;;17.80;1.00;;;;;;4991393;28;20437;-60
2023/07/03 07:43:10;;;;;;;11.77;4.10;;;18.40;1.00;;;;;;4991397;28;20906;-59
2023/07/03 07:45:37;;;;;;;10.90;4.40;;;19.30;1.00;;;;;;4991139;28;20216;-59
2023/07/03 07:48:03;;;;;;;13.17;4.53;;;20.00;1.00;;;;;;4991245;28;20203;-59
2023/07/03 07:50:29;;;;;;;15.20;4.90;;;20.60;1.00;;;;;;4991206;28;20419;-59
2023/07/03 07:52:56;;;;;;;9.53;3.77;;;20.80;1.00;;;;;;4990947;28;20187;-59
2023/07/03 07:55:22;;;;;;;13.30;4.63;;;21.10;1.00;;;;;;4994479;28;20579;-58
2023/07/03 07:57:48;;;;;;;17.83;4.50;;;21.20;1.00;;;;;;4994234;28;20958;-59
2023/07/03 08:00:14;;;;;;;13.20;4.37;;;21.00;1.00;;;;;;4992963;28;20186;-59
2023/07/03 08:02:40;;;;;;;15.37;5.10;;;20.50;99.90;;;;;;4994201;28;20428;-59
2023/07/03 08:05:07;;;;;;;17.03;4.23;;;20.30;1.00;;;;;;4994386;28;20467;-59
2023/07/03 08:07:33;;;;;;;13.30;4.23;;;20.60;1.00;;;;;;4994719;28;20507;-59
2023/07/03 08:09:58;;;;;;;21.03;3.73;;;21.00;1.00;;;;;;4994307;28;20456;-60
2023/07/03 08:12:24;;;;;;;12.63;3.27;;;21.80;99.90;;;;;;4993135;28;20197;-59
2023/07/03 08:14:50;;;;;;;12.43;3.50;;;22.10;99.90;;;;;;4994142;28;20273;-58
2023/07/03 08:17:15;;;;;;;11.53;3.30;;;21.30;99.90;;;;;;4993922;28;20184;-59
2023/07/03 08:19:41;;;;;;;12.47;3.53;;;20.30;99.90;;;;;;4994038;28;20182;-59
2023/07/03 08:22:06;;;;;;;16.63;4.50;;;19.40;99.90;;;;;;4994463;28;20549;-59
2023/07/03 08:24:32;;;;;;;17.30;4.67;;;18.90;99.90;;;;;;4994186;28;20182;-58
2023/07/03 08:26:57;;;;;;;12.70;5.50;;;18.70;1.00;;;;;;4993489;28;20188;-59
2023/07/03 08:29:23;;;;;;;15.67;4.83;;;19.00;1.00;;;;;;4994080;28;20184;-58
2023/07/03 08:31:48;;;;;;;20.43;4.47;;;19.40;1.00;;;;;;4993800;28;20180;-59
2023/07/03 08:34:14;;;;;;;15.37;3.90;;;20.00;1.00;;;;;;4994251;28;20181;-60
2023/07/03 08:36:40;;;;;;;17.17;4.00;;;20.70;1.00;;;;;;4993876;28;20213;-59
2023/07/03 08:39:05;;;;;;;18.83;4.40;;;21.10;1.00;;;;;;4993846;28;20232;-59
2023/07/03 08:41:54;;;;;;;8.97;3.43;;;21.80;1.00;;;;;;4994220;28;20210;-58
2023/07/03 08:44:20;;;;;;;11.00;2.83;;;22.00;99.90;;;;;;4993065;28;20187;-55
2023/07/03 08:46:47;;;;;;;14.37;2.90;;;21.70;99.90;;;;;;4974171;28;20483;-58
2023/07/03 08:49:16;;;;;;;15.73;3.40;;;21.70;99.90;;;;;;4974397;28;20290;-58
2023/07/03 08:51:43;;;;;;;16.00;2.97;;;21.70;99.90;;;;;;4974612;28;20419;-58
2023/07/03 08:54:32;;;;;;;10.73;3.60;;;20.80;99.90;;;;;;4973889;28;20480;-59
2023/07/03 08:56:58;;;;;;;14.93;3.80;;;20.10;99.90;;;;;;4974255;28;20419;-58
2023/07/03 08:59:24;;;;;;;7.60;3.13;;;19.70;99.90;;;;;;4982214;28;20490;-58
2023/07/03 09:02:09;;;;;;;19.20;4.07;;;19.60;99.90;;;;;;4993310;28;21053;-58
2023/07/03 09:04:58;;;;;;;12.60;4.33;;;19.80;99.90;;;;;;4993292;28;20254;-59
2023/07/03 09:07:24;;;;;;;15.80;3.10;;;20.50;99.90;;;;;;4993685;28;20498;-58
2023/07/03 09:09:54;;;;;;;9.10;3.37;;;21.00;99.90;;;;;;4993679;28;20532;-58
2023/07/03 09:12:30;;;;;;;12.10;3.70;;;21.70;99.90;;;;;;4993457;28;20171;-58
2023/07/03 09:15:01;;;;;;;13.50;3.90;;;21.80;99.90;;;;;;4993312;28;20459;-58
2023/07/03 09:17:27;;;;;;;12.13;3.50;;;21.20;99.90;;;;;;4993181;28;20886;-57
2023/07/03 09:19:56;;;;;;;9.90;3.43;;;20.70;99.90;;;;;;4992804;28;20917;-58
2023/07/03 09:22:52;;;;;;;10.33;3.50;;;21.00;99.90;;;;;;4992638;28;20437;-57
2023/07/03 09:25:23;;;;;;;10.10;2.80;;;21.90;99.90;;;;;;4992965;28;20897;-59
2023/07/03 09:27:53;;;;;;;11.80;3.10;;;22.80;99.90;;;;;;4993285;28;20418;-56
2023/07/03 09:30:19;;;;;;;9.90;3.03;;;22.70;99.90;;;;;;4993598;28;20406;-57
2023/07/03 09:32:45;;;;;;;6.53;2.93;;;22.20;99.90;;;;;;4992790;28;20432;-57
2023/07/03 09:35:20;;;;;;;8.80;3.10;;;21.90;99.90;;;;;;4992781;28;20207;-58
2023/07/03 09:37:56;;;;;;;8.03;2.73;;;21.70;99.90;;;;;;4992737;28;20517;-57
2023/07/03 09:40:25;;;;;;;12.10;2.50;;;21.70;99.90;;;;;;4993011;28;20929;-57
2023/07/03 09:42:52;;;;;;;8.33;2.40;;;22.40;99.90;;;;;;4992932;28;20429;-57
2023/07/03 09:45:22;;;;;;;9.57;2.43;;;22.80;99.90;;;;;;4992966;28;20517;-57
2023/07/03 09:47:57;;;;;;;9.07;3.20;;;22.70;99.90;;;;;;4973518;28;20427;-57
2023/07/03 09:50:26;;;;;;;10.50;2.80;;;22.80;99.90;;;;;;4990046;28;20762;-54
2023/07/03 09:52:55;;;;;;;6.90;2.53;;;22.60;99.90;;;;;;4992591;28;20434;-57
2023/07/03 09:55:21;;;;;;;8.93;2.87;;;21.70;99.90;;;;;;4992222;28;20885;-57
2023/07/03 09:57:47;;;;;;;11.53;2.73;;;21.40;99.90;;;;;;4992807;28;20424;-58
2023/07/03 10:00:20;;;;;;;9.63;2.90;;;21.30;99.90;;;;;;4992915;28;20425;-58
2023/07/03 10:02:50;;;;;;;10.03;2.73;;;20.80;99.90;;;;;;4992914;28;20421;-57
2023/07/03 10:05:19;;;;;;;10.80;2.73;;;20.10;99.90;;;;;;4992550;28;20756;-58
2023/07/03 10:07:46;;;;;;;7.47;2.27;;;20.40;99.90;;;;;;4993150;28;20815;-58
2023/07/03 10:10:19;;;;;;;7.80;2.83;;;21.50;99.90;;;;;;4992495;28;20421;-58
2023/07/03 10:13:11;;;;;;;8.80;2.43;;;22.00;99.90;;;;;;4993215;28;20436;-59
2023/07/03 10:15:39;;;;;;;16.80;3.33;;;21.90;99.90;;;;;;4991343;28;20486;-58
2023/07/03 10:18:33;;;;;;;7.63;2.80;;;21.50;99.90;;;;;;4991911;28;20435;-57
2023/07/03 10:21:01;;;;;;;6.27;2.23;;;20.70;99.90;;;;;;4992230;28;20422;-58
2023/07/03 10:23:30;;;;;;;8.23;2.70;;;20.00;99.90;;;;;;4992395;28;20494;-59
2023/07/03 10:26:11;;;;;;;5.43;2.30;;;19.50;99.90;;;;;;4992480;28;20424;-56
2023/07/03 10:28:45;;;;;;;8.10;2.10;;;19.30;99.90;;;;;;4992693;28;20758;-58
2023/07/03 10:31:32;;;;;;;8.30;2.50;;;19.00;99.90;;;;;;4992144;28;20434;-58
2023/07/03 10:34:04;;;;;;;5.23;1.80;;;18.80;99.90;;;;;;4991950;28;20420;-57
2023/07/03 10:36:32;;;;;;;5.17;2.00;;;18.20;99.90;;;;;;4991803;28;20526;-60
2023/07/03 10:39:07;;;;;;;8.63;1.87;;;17.30;99.90;;;;;;4992085;28;20461;-58
2023/07/03 10:41:57;;;;;;;5.40;1.77;;;16.30;1.00;;;;;;4992141;28;20417;-61
2023/07/03 10:44:27;;;;;;;8.67;1.93;;;15.80;1.00;;;;;;4992045;28;20497;-59
2023/07/03 10:47:06;;;;;;;5.87;2.43;;;15.60;1.00;;;;;;4991731;28;20495;-60
2023/07/03 10:49:37;;;;;;;10.57;2.20;;;15.50;99.90;;;;;;4992093;28;20775;-59
2023/07/03 10:52:23;;;;;;;5.30;1.87;;;15.60;99.90;;;;;;4991396;28;20434;-60
2023/07/03 10:55:12;;;;;;;7.40;1.77;;;15.80;1.00;;;;;;5000869;28;20483;-60
2023/07/03 10:57:51;;;;;;;5.53;2.03;;;16.00;1.00;;;;;;5021738;28;20445;-59
2023/07/03 11:00:28;;;;;;;3.10;1.90;;;16.20;1.00;;;;;;4992118;28;20422;-61
2023/07/03 11:03:04;;;;;;;4.80;1.70;;;16.20;99.90;;;;;;4991715;28;20411;-60
2023/07/03 11:05:38;;;;;;;2.80;1.67;;;16.10;99.90;;;;;;4991929;28;20434;-60
2023/07/03 11:08:35;;;;;;;3.93;1.67;;;16.10;99.90;;;;;;4991440;28;20431;-61
2023/07/03 11:11:26;;;;;;;5.43;2.00;;;16.20;99.90;;;;;;4991908;28;20427;-59
2023/07/03 11:14:26;;;;;;;2.70;1.77;;;16.50;99.90;;;;;;4991285;28;20525;-60
2023/07/03 11:17:04;;;;;;;5.37;1.83;;;17.30;99.90;;;;;;4991474;28;20454;-60
2023/07/03 11:19:45;;;;;;;4.47;1.90;;;18.00;12.50;;;;;;4991284;28;20434;-59
2023/07/03 11:22:20;;;;;;;4.00;2.00;;;18.60;1.00;;;;;;4991816;28;20496;-59
2023/07/03 11:25:16;;;;;;;4.63;1.90;;;19.00;1.00;;;;;;4991673;28;20415;-59
2023/07/03 11:28:22;;;;;;;6.00;2.30;;;19.40;1.00;;;;;;4992975;28;20411;-59
2023/07/03 11:30:49;;;;;;;4.70;2.10;;;19.50;1.00;;;;;;5055259;28;20434;-58
2023/07/03 11:33:16;;;;;;;6.00;2.20;;;19.90;1.00;;;;;;5004627;28;20966;-59
2023/07/03 11:35:56;;;;;;;6.23;2.13;;;20.20;1.00;;;;;;4994543;28;20464;-59
2023/07/03 11:38:22;;;;;;;11.50;2.73;;;20.40;1.00;;;;;;4995091;28;20463;-58
2023/07/03 11:40:54;;;;;;;5.90;2.43;;;20.50;1.00;;;;;;4994891;28;20410;-58
2023/07/03 11:43:25;;;;;;;2.23;1.87;;;20.50;1.00;;;;;;4995218;28;20435;-58
2023/07/03 11:45:56;;;;;;;7.37;2.00;;;20.40;1.00;;;;;;4994295;28;20434;-60
2023/07/03 11:48:41;;;;;;;6.37;2.10;;;20.00;1.00;;;;;;4994162;28;20426;-58
2023/07/03 11:51:12;;;;;;;6.10;2.40;;;19.80;1.00;;;;;;4993149;28;20759;-59
2023/07/03 11:53:49;;;;;;;4.83;2.40;;;19.60;1.00;;;;;;4993835;28;20572;-59
2023/07/03 11:56:36;;;;;;;6.63;2.73;;;19.40;1.00;;;;;;4994154;28;20467;-60
2023/07/03 11:59:07;;;;;;;7.33;2.33;;;18.90;1.00;;;;;;4994661;28;20449;-59
2023/07/03 12:01:32;;;;;;;5.90;2.10;;;18.60;1.00;;;;;;4994531;28;20404;-58
2023/07/03 12:04:04;;;;;;;8.23;1.80;;;18.30;1.00;;;;;;4994596;28;20473;-58
2023/07/03 12:06:39;;;;;;;3.10;1.70;;;18.10;1.00;;;;;;4994174;28;20203;-61
2023/07/03 12:09:32;;;;;;;4.53;1.50;;;17.80;1.00;;;;;;4994366;28;20429;-59
2023/07/03 12:12:03;;;;;;;4.50;1.50;;;17.60;1.00;;;;;;4974739;28;20503;-61
2023/07/03 12:14:40;;;;;;;4.37;1.70;;;17.50;1.00;;;;;;4974932;28;20416;-60
2023/07/03 12:17:27;;;;;;;3.33;1.10;;;17.70;1.00;;;;;;4974604;28;20515;-58
2023/07/03 12:20:20;;;;;;;2.77;1.20;;;17.60;1.00;;;;;;4974777;28;20420;-59
2023/07/03 12:22:50;;;;;;;2.70;1.20;;;17.50;1.00;;;;;;4981742;28;20447;-59
2023/07/03 12:25:20;;;;;;;3.43;1.33;;;17.70;1.00;;;;;;4974378;28;21069;-60
2023/07/03 12:27:47;;;;;;;4.73;1.37;;;18.00;1.00;;;;;;4974793;28;20481;-60
2023/07/03 12:30:23;;;;;;;2.20;1.20;;;18.50;1.00;;;;;;4977525;28;20436;-58
2023/07/03 12:32:50;;;;;;;2.40;1.67;;;19.30;1.00;;;;;;4993964;28;20443;-58
2023/07/03 12:35:17;;;;;;;7.87;1.63;;;19.50;1.00;;;;;;4993669;28;20491;-59
2023/07/03 12:37:48;;;;;;;5.30;1.40;;;19.90;1.00;;;;;;4994053;28;20427;-59
2023/07/03 12:40:18;;;;;;;3.53;1.30;;;20.20;1.00;;;;;;4993424;28;20415;-59
2023/07/03 12:42:51;;;;;;;5.17;1.37;;;20.20;1.00;;;;;;4994205;28;20417;-59
2023/07/03 12:45:23;;;;;;;4.17;1.30;;;19.70;1.00;;;;;;4994179;28;20803;-59
2023/07/03 12:48:03;;;;;;;3.97;1.60;;;19.30;1.00;;;;;;4993572;28;20489;-59
2023/07/03 12:50:29;;;;;;;5.20;1.70;;;19.10;1.00;;;;;;4994141;28;20819;-59
2023/07/03 12:53:00;;;;;;;2.97;1.50;;;19.10;1.00;;;;;;4993399;28;20903;-60
2023/07/03 12:55:28;;;;;;;4.30;1.40;;;19.20;1.00;;;;;;4993807;28;20483;-60
2023/07/03 12:57:54;;;;;;;5.70;1.70;;;18.90;1.00;;;;;;4993822;28;20830;-61
2023/07/03 13:00:28;;;;;;;6.43;1.80;;;17.90;1.00;;;;;;4993273;28;20439;-59